Terminal Aerodrome Forecast
Issued by NWS

Home | Current Version | Previous Version | Text Only | Print | Product List | Glossary Off
Versions: 1 2 3 4 5 6 7 8 9 10 11 12 13

000
FTUS45 KGGW 291700
TAFSDY
TAF
KSDY 291720Z 2918/3018 36008KT P6SM SCT045
     FM300000 VRB04KT P6SM FEW140
     FM301000 14010KT P6SM SCT010
     FM301700 15013KT P6SM VCSH BKN100
      AMD LTD TO CLD VIS AND WIND=

USA.gov is the U.S. government's official web portal to all federal, state and local government web resources and services.